sensor_id;sensor_type;location;lat;lon;timestamp;pressure;altitude;pressure_sealevel;temperature;humidity
46015;BME280;36844;51.898;-0.874;2023-11-19T00:01:04;99486.69;;;18.75;
46015;BME280;36844;51.898;-0.874;2023-11-19T00:03:30;99499.91;;;18.86;
46015;BME280;36844;51.898;-0.874;2023-11-19T00:05:56;99492.41;;;18.77;
46015;BME280;36844;51.898;-0.874;2023-11-19T00:08:21;99493.94;;;18.78;
46015;BME280;36844;51.898;-0.874;2023-11-19T00:10:46;99472.41;;;18.62;
46015;BME280;36844;51.898;-0.874;2023-11-19T00:13:12;99498.16;;;18.80;
46015;BME280;36844;51.898;-0.874;2023-11-19T00:15:37;99498.16;;;18.80;
46015;BME280;36844;51.898;-0.874;2023-11-19T00:18:03;99506.44;;;18.72;
46015;BME280;36844;51.898;-0.874;2023-11-19T00:20:30;99524.78;;;18.77;
46015;BME280;36844;51.898;-0.874;2023-11-19T00:22:55;99478.72;;;18.40;
46015;BME280;36844;51.898;-0.874;2023-11-19T00:25:21;99508.63;;;18.61;
46015;BME280;36844;51.898;-0.874;2023-11-19T00:27:47;99522.91;;;18.74;
46015;BME280;36844;51.898;-0.874;2023-11-19T00:30:13;99508.53;;;18.65;
46015;BME280;36844;51.898;-0.874;2023-11-19T00:32:39;99507.47;;;18.62;
46015;BME280;36844;51.898;-0.874;2023-11-19T00:35:05;99521.16;;;18.68;
46015;BME280;36844;51.898;-0.874;2023-11-19T00:37:32;99518.47;;;18.68;
46015;BME280;36844;51.898;-0.874;2023-11-19T00:39:57;99479.28;;;18.47;
46015;BME280;36844;51.898;-0.874;2023-11-19T00:42:23;99489.94;;;18.54;
46015;BME280;36844;51.898;-0.874;2023-11-19T00:44:50;99503.72;;;18.56;
46015;BME280;36844;51.898;-0.874;2023-11-19T00:47:15;99503.31;;;18.58;
46015;BME280;36844;51.898;-0.874;2023-11-19T00:49:40;99494.31;;;18.48;
46015;BME280;36844;51.898;-0.874;2023-11-19T00:52:06;99497.59;;;18.56;
46015;BME280;36844;51.898;-0.874;2023-11-19T00:54:32;99484.09;;;18.40;
46015;BME280;36844;51.898;-0.874;2023-11-19T00:56:57;99500.81;;;18.51;
46015;BME280;36844;51.898;-0.874;2023-11-19T00:59:22;99496.16;;;18.51;
46015;BME280;36844;51.898;-0.874;2023-11-19T01:01:48;99496.09;;;18.55;
46015;BME280;36844;51.898;-0.874;2023-11-19T01:04:14;99485.38;;;18.51;
46015;BME280;36844;51.898;-0.874;2023-11-19T01:06:39;99478.56;;;18.47;
46015;BME280;36844;51.898;-0.874;2023-11-19T01:09:05;99486.91;;;18.52;
46015;BME280;36844;51.898;-0.874;2023-11-19T01:11:30;99480.16;;;18.44;
46015;BME280;36844;51.898;-0.874;2023-11-19T01:13:56;99452.59;;;18.21;
46015;BME280;36844;51.898;-0.874;2023-11-19T01:16:21;99491.69;;;18.45;
46015;BME280;36844;51.898;-0.874;2023-11-19T01:18:48;99487.38;;;18.47;
46015;BME280;36844;51.898;-0.874;2023-11-19T01:21:14;99476.47;;;18.38;
46015;BME280;36844;51.898;-0.874;2023-11-19T01:23:42;99476.00;;;18.40;
46015;BME280;36844;51.898;-0.874;2023-11-19T01:26:11;99497.09;;;18.45;
46015;BME280;36844;51.898;-0.874;2023-11-19T01:28:39;99483.34;;;18.39;
46015;BME280;36844;51.898;-0.874;2023-11-19T01:31:05;99487.25;;;18.38;
46015;BME280;36844;51.898;-0.874;2023-11-19T01:33:33;99456.13;;;18.18;
46015;BME280;36844;51.898;-0.874;2023-11-19T01:35:59;99474.25;;;18.33;
46015;BME280;36844;51.898;-0.874;2023-11-19T01:38:24;99483.88;;;18.34;
46015;BME280;36844;51.898;-0.874;2023-11-19T01:40:50;99479.06;;;18.26;
46015;BME280;36844;51.898;-0.874;2023-11-19T01:43:38;99486.88;;;18.36;
46015;BME280;36844;51.898;-0.874;2023-11-19T01:46:05;99489.56;;;18.36;
46015;BME280;36844;51.898;-0.874;2023-11-19T01:48:34;99485.81;;;18.34;
46015;BME280;36844;51.898;-0.874;2023-11-19T01:51:01;99483.88;;;18.34;
46015;BME280;36844;51.898;-0.874;2023-11-19T01:53:28;99475.19;;;18.27;
46015;BME280;36844;51.898;-0.874;2023-11-19T01:55:54;99468.94;;;18.30;
46015;BME280;36844;51.898;-0.874;2023-11-19T01:58:20;99479.75;;;18.30;
46015;BME280;36844;51.898;-0.874;2023-11-19T02:00:46;99470.88;;;18.29;
46015;BME280;36844;51.898;-0.874;2023-11-19T02:03:12;99467.59;;;18.22;
46015;BME280;36844;51.898;-0.874;2023-11-19T02:05:38;99482.81;;;18.28;
46015;BME280;36844;51.898;-0.874;2023-11-19T02:08:04;99492.91;;;18.28;
46015;BME280;36844;51.898;-0.874;2023-11-19T02:10:29;99496.84;;;18.23;
46015;BME280;36844;51.898;-0.874;2023-11-19T02:12:54;99489.53;;;18.24;
46015;BME280;36844;51.898;-0.874;2023-11-19T02:15:20;99477.78;;;18.14;
46015;BME280;36844;51.898;-0.874;2023-11-19T02:17:47;99490.00;;;18.19;
46015;BME280;36844;51.898;-0.874;2023-11-19T02:20:12;99490.78;;;18.19;
46015;BME280;36844;51.898;-0.874;2023-11-19T02:22:40;99457.16;;;17.92;
46015;BME280;36844;51.898;-0.874;2023-11-19T02:25:07;99503.88;;;18.17;
46015;BME280;36844;51.898;-0.874;2023-11-19T02:27:52;99512.63;;;18.21;
46015;BME280;36844;51.898;-0.874;2023-11-19T02:30:21;99491.34;;;18.11;
46015;BME280;36844;51.898;-0.874;2023-11-19T02:32:46;99484.53;;;18.06;
46015;BME280;36844;51.898;-0.874;2023-11-19T02:35:13;99466.66;;;17.96;
46015;BME280;36844;51.898;-0.874;2023-11-19T02:37:38;99492.78;;;18.15;
46015;BME280;36844;51.898;-0.874;2023-11-19T02:40:05;99485.09;;;18.14;
46015;BME280;36844;51.898;-0.874;2023-11-19T02:42:31;99488.16;;;18.16;
46015;BME280;36844;51.898;-0.874;2023-11-19T02:44:56;99450.56;;;17.93;
46015;BME280;36844;51.898;-0.874;2023-11-19T02:47:22;99475.09;;;18.14;
46015;BME280;36844;51.898;-0.874;2023-11-19T02:49:49;99423.19;;;17.78;
46015;BME280;36844;51.898;-0.874;2023-11-19T02:52:14;99454.13;;;18.06;
46015;BME280;36844;51.898;-0.874;2023-11-19T02:54:40;99439.63;;;18.00;
46015;BME280;36844;51.898;-0.874;2023-11-19T02:57:06;99455.22;;;18.08;
46015;BME280;36844;51.898;-0.874;2023-11-19T02:59:35;99453.69;;;18.07;
46015;BME280;36844;51.898;-0.874;2023-11-19T03:02:05;99450.31;;;18.03;
46015;BME280;36844;51.898;-0.874;2023-11-19T03:04:33;99458.47;;;18.00;
46015;BME280;36844;51.898;-0.874;2023-11-19T03:06:58;99459.59;;;18.02;
46015;BME280;36844;51.898;-0.874;2023-11-19T03:09:23;99450.91;;;17.95;
46015;BME280;36844;51.898;-0.874;2023-11-19T03:11:49;99445.53;;;17.95;
46015;BME280;36844;51.898;-0.874;2023-11-19T03:14:15;99443.94;;;17.97;
46015;BME280;36844;51.898;-0.874;2023-11-19T03:16:40;99435.09;;;17.97;
46015;BME280;36844;51.898;-0.874;2023-11-19T03:19:05;99438.53;;;17.97;
46015;BME280;36844;51.898;-0.874;2023-11-19T03:21:31;99454.94;;;18.03;
46015;BME280;36844;51.898;-0.874;2023-11-19T03:23:59;99442.75;;;17.98;
46015;BME280;36844;51.898;-0.874;2023-11-19T03:26:26;99433.31;;;17.90;
46015;BME280;36844;51.898;-0.874;2023-11-19T03:28:52;99447.88;;;17.93;
46015;BME280;36844;51.898;-0.874;2023-11-19T03:31:18;99442.06;;;17.94;
46015;BME280;36844;51.898;-0.874;2023-11-19T03:33:44;99430.25;;;17.88;
46015;BME280;36844;51.898;-0.874;2023-11-19T03:36:09;99445.09;;;17.96;
46015;BME280;36844;51.898;-0.874;2023-11-19T03:38:35;99423.47;;;17.84;
46015;BME280;36844;51.898;-0.874;2023-11-19T03:41:09;99417.81;;;17.78;
46015;BME280;36844;51.898;-0.874;2023-11-19T03:43:35;99420.41;;;17.82;
46015;BME280;36844;51.898;-0.874;2023-11-19T03:46:00;99455.09;;;17.96;
46015;BME280;36844;51.898;-0.874;2023-11-19T03:48:25;99427.66;;;17.85;
46015;BME280;36844;51.898;-0.874;2023-11-19T03:50:50;99422.84;;;17.76;
46015;BME280;36844;51.898;-0.874;2023-11-19T03:53:16;99442.91;;;17.91;
46015;BME280;36844;51.898;-0.874;2023-11-19T03:55:41;99433.19;;;17.77;
46015;BME280;36844;51.898;-0.874;2023-11-19T03:58:06;99423.94;;;17.78;
46015;BME280;36844;51.898;-0.874;2023-11-19T04:00:32;99437.59;;;17.88;
46015;BME280;36844;51.898;-0.874;2023-11-19T04:02:58;99435.72;;;17.85;
46015;BME280;36844;51.898;-0.874;2023-11-19T04:05:23;99435.38;;;17.83;
46015;BME280;36844;51.898;-0.874;2023-11-19T04:07:48;99421.66;;;17.77;
46015;BME280;36844;51.898;-0.874;2023-11-19T04:10:14;99434.38;;;17.77;
46015;BME280;36844;51.898;-0.874;2023-11-19T04:12:41;99441.53;;;17.83;
46015;BME280;36844;51.898;-0.874;2023-11-19T04:15:08;99406.25;;;17.61;
46015;BME280;36844;51.898;-0.874;2023-11-19T04:17:33;99415.03;;;17.65;
46015;BME280;36844;51.898;-0.874;2023-11-19T04:19:59;99418.88;;;17.64;
46015;BME280;36844;51.898;-0.874;2023-11-19T04:22:24;99426.53;;;17.66;
46015;BME280;36844;51.898;-0.874;2023-11-19T04:24:49;99434.88;;;17.71;
46015;BME280;36844;51.898;-0.874;2023-11-19T04:27:15;99446.31;;;17.75;
46015;BME280;36844;51.898;-0.874;2023-11-19T04:29:40;99458.22;;;17.78;
46015;BME280;36844;51.898;-0.874;2023-11-19T04:32:06;99476.56;;;17.83;
46015;BME280;36844;51.898;-0.874;2023-11-19T04:34:31;99460.94;;;17.74;
46015;BME280;36844;51.898;-0.874;2023-11-19T04:36:56;99464.00;;;17.77;
46015;BME280;36844;51.898;-0.874;2023-11-19T04:39:22;99452.25;;;17.67;
46015;BME280;36844;51.898;-0.874;2023-11-19T04:41:48;99448.84;;;17.66;
46015;BME280;36844;51.898;-0.874;2023-11-19T04:44:15;99447.25;;;17.69;
46015;BME280;36844;51.898;-0.874;2023-11-19T04:46:41;99461.41;;;17.73;
46015;BME280;36844;51.898;-0.874;2023-11-19T04:49:08;99438.81;;;17.67;
46015;BME280;36844;51.898;-0.874;2023-11-19T04:51:42;99420.63;;;17.55;
46015;BME280;36844;51.898;-0.874;2023-11-19T04:54:09;99453.41;;;17.69;
46015;BME280;36844;51.898;-0.874;2023-11-19T04:56:38;99455.94;;;17.77;
46015;BME280;36844;51.898;-0.874;2023-11-19T04:59:04;99442.34;;;17.64;
46015;BME280;36844;51.898;-0.874;2023-11-19T05:01:31;99442.34;;;17.64;
46015;BME280;36844;51.898;-0.874;2023-11-19T05:03:56;99455.25;;;17.72;
46015;BME280;36844;51.898;-0.874;2023-11-19T05:06:26;99416.13;;;17.48;
46015;BME280;36844;51.898;-0.874;2023-11-19T05:08:52;99443.38;;;17.70;
46015;BME280;36844;51.898;-0.874;2023-11-19T05:11:17;99389.53;;;17.34;
46015;BME280;36844;51.898;-0.874;2023-11-19T05:13:44;99432.19;;;17.71;
46015;BME280;36844;51.898;-0.874;2023-11-19T05:16:11;99436.09;;;17.67;
46015;BME280;36844;51.898;-0.874;2023-11-19T05:18:39;99398.22;;;17.42;
46015;BME280;36844;51.898;-0.874;2023-11-19T05:21:05;99436.63;;;17.62;
46015;BME280;36844;51.898;-0.874;2023-11-19T05:23:30;99426.03;;;17.51;
46015;BME280;36844;51.898;-0.874;2023-11-19T05:25:55;99442.84;;;17.59;
46015;BME280;36844;51.898;-0.874;2023-11-19T05:28:21;99448.84;;;17.66;
46015;BME280;36844;51.898;-0.874;2023-11-19T05:30:49;99450.19;;;17.58;
46015;BME280;36844;51.898;-0.874;2023-11-19T05:33:15;99452.78;;;17.62;
46015;BME280;36844;51.898;-0.874;2023-11-19T05:35:40;99444.78;;;17.58;
46015;BME280;36844;51.898;-0.874;2023-11-19T05:38:05;99454.72;;;17.61;
46015;BME280;36844;51.898;-0.874;2023-11-19T05:40:31;99445.19;;;17.57;
46015;BME280;36844;51.898;-0.874;2023-11-19T05:42:56;99434.41;;;17.57;
46015;BME280;36844;51.898;-0.874;2023-11-19T05:45:22;99441.25;;;17.61;
46015;BME280;36844;51.898;-0.874;2023-11-19T05:47:47;99397.91;;;17.36;
46015;BME280;36844;51.898;-0.874;2023-11-19T05:50:12;99428.88;;;17.64;
46015;BME280;36844;51.898;-0.874;2023-11-19T05:52:38;99429.88;;;17.54;
46015;BME280;36844;51.898;-0.874;2023-11-19T05:55:04;99420.22;;;17.37;
46015;BME280;36844;51.898;-0.874;2023-11-19T05:57:30;99425.50;;;17.40;
46015;BME280;36844;51.898;-0.874;2023-11-19T05:59:55;99436.75;;;17.55;
46015;BME280;36844;51.898;-0.874;2023-11-19T06:02:21;99444.41;;;17.56;
46015;BME280;36844;51.898;-0.874;2023-11-19T06:04:46;99452.19;;;17.54;
46015;BME280;36844;51.898;-0.874;2023-11-19T06:07:13;99443.72;;;17.52;
46015;BME280;36844;51.898;-0.874;2023-11-19T06:09:40;99435.66;;;17.52;
46015;BME280;36844;51.898;-0.874;2023-11-19T06:12:05;99448.34;;;17.52;
46015;BME280;36844;51.898;-0.874;2023-11-19T06:14:32;99460.66;;;17.53;
46015;BME280;36844;51.898;-0.874;2023-11-19T06:16:58;99454.50;;;17.52;
46015;BME280;36844;51.898;-0.874;2023-11-19T06:19:23;99446.78;;;17.54;
46015;BME280;36844;51.898;-0.874;2023-11-19T06:21:50;99439.28;;;17.46;
46015;BME280;36844;51.898;-0.874;2023-11-19T06:24:15;99457.56;;;17.54;
46015;BME280;36844;51.898;-0.874;2023-11-19T06:26:40;99424.19;;;17.29;
46015;BME280;36844;51.898;-0.874;2023-11-19T06:29:06;99445.34;;;17.50;
46015;BME280;36844;51.898;-0.874;2023-11-19T06:31:31;99427.88;;;17.38;
46015;BME280;36844;51.898;-0.874;2023-11-19T06:33:56;99424.78;;;17.40;
46015;BME280;36844;51.898;-0.874;2023-11-19T06:36:22;99436.97;;;17.44;
46015;BME280;36844;51.898;-0.874;2023-11-19T06:38:47;99406.59;;;17.28;
46015;BME280;36844;51.898;-0.874;2023-11-19T06:41:12;99402.75;;;17.25;
46015;BME280;36844;51.898;-0.874;2023-11-19T06:43:37;99434.72;;;17.43;
46015;BME280;36844;51.898;-0.874;2023-11-19T06:46:03;99425.19;;;17.38;
46015;BME280;36844;51.898;-0.874;2023-11-19T06:48:34;99434.34;;;17.41;
46015;BME280;36844;51.898;-0.874;2023-11-19T06:51:00;99403.28;;;17.20;
46015;BME280;36844;51.898;-0.874;2023-11-19T06:53:25;99430.16;;;17.40;
46015;BME280;36844;51.898;-0.874;2023-11-19T06:55:53;99430.91;;;17.40;
46015;BME280;36844;51.898;-0.874;2023-11-19T06:58:18;99420.81;;;17.44;
46015;BME280;36844;51.898;-0.874;2023-11-19T07:00:44;99419.59;;;17.49;
46015;BME280;36844;51.898;-0.874;2023-11-19T07:03:11;99419.59;;;17.49;
46015;BME280;36844;51.898;-0.874;2023-11-19T07:05:36;99400.50;;;17.43;
46015;BME280;36844;51.898;-0.874;2023-11-19T07:08:03;99406.97;;;17.46;
46015;BME280;36844;51.898;-0.874;2023-11-19T07:10:29;99420.13;;;17.60;
46015;BME280;36844;51.898;-0.874;2023-11-19T07:12:55;99399.50;;;17.53;
46015;BME280;36844;51.898;-0.874;2023-11-19T07:15:21;99420.56;;;17.58;
46015;BME280;36844;51.898;-0.874;2023-11-19T07:17:46;99386.69;;;17.41;
46015;BME280;36844;51.898;-0.874;2023-11-19T07:20:13;99419.56;;;17.68;
46015;BME280;36844;51.898;-0.874;2023-11-19T07:22:43;99427.28;;;17.66;
46015;BME280;36844;51.898;-0.874;2023-11-19T07:25:08;99387.19;;;17.52;
46015;BME280;36844;51.898;-0.874;2023-11-19T07:27:33;99404.84;;;17.73;
46015;BME280;36844;51.898;-0.874;2023-11-19T07:29:59;99395.31;;;17.68;
46015;BME280;36844;51.898;-0.874;2023-11-19T07:32:24;99420.41;;;17.82;
46015;BME280;36844;51.898;-0.874;2023-11-19T07:34:49;99404.78;;;17.77;
46015;BME280;36844;51.898;-0.874;2023-11-19T07:37:15;99426.50;;;17.86;
46015;BME280;36844;51.898;-0.874;2023-11-19T07:39:42;99382.34;;;17.63;
46015;BME280;36844;51.898;-0.874;2023-11-19T07:42:07;99396.78;;;17.73;
46015;BME280;36844;51.898;-0.874;2023-11-19T07:44:34;99432.41;;;17.97;
46015;BME280;36844;51.898;-0.874;2023-11-19T07:46:59;99427.78;;;17.97;
46015;BME280;36844;51.898;-0.874;2023-11-19T07:49:24;99425.13;;;17.94;
46015;BME280;36844;51.898;-0.874;2023-11-19T07:51:50;99423.13;;;17.98;
46015;BME280;36844;51.898;-0.874;2023-11-19T07:54:15;99396.88;;;17.86;
46015;BME280;36844;51.898;-0.874;2023-11-19T07:56:40;99425.25;;;18.06;
46015;BME280;36844;51.898;-0.874;2023-11-19T07:59:06;99427.94;;;18.06;
46015;BME280;36844;51.898;-0.874;2023-11-19T08:01:31;99429.34;;;18.11;
46015;BME280;36844;51.898;-0.874;2023-11-19T08:03:57;99452.28;;;18.19;
46015;BME280;36844;51.898;-0.874;2023-11-19T08:06:22;99434.44;;;18.09;
46015;BME280;36844;51.898;-0.874;2023-11-19T08:08:47;99451.19;;;18.16;
46015;BME280;36844;51.898;-0.874;2023-11-19T08:11:13;99460.66;;;18.21;
46015;BME280;36844;51.898;-0.874;2023-11-19T08:13:38;99452.28;;;18.19;
46015;BME280;36844;51.898;-0.874;2023-11-19T08:16:04;99438.22;;;18.11;
46015;BME280;36844;51.898;-0.874;2023-11-19T08:18:30;99433.16;;;18.13;
46015;BME280;36844;51.898;-0.874;2023-11-19T08:20:55;99428.69;;;18.07;
46015;BME280;36844;51.898;-0.874;2023-11-19T08:23:22;99459.03;;;18.27;
46015;BME280;36844;51.898;-0.874;2023-11-19T08:25:48;99443.72;;;18.24;
46015;BME280;36844;51.898;-0.874;2023-11-19T08:28:14;99448.56;;;18.29;
46015;BME280;36844;51.898;-0.874;2023-11-19T08:30:40;99446.72;;;18.26;
46015;BME280;36844;51.898;-0.874;2023-11-19T08:33:05;99442.19;;;18.23;
46015;BME280;36844;51.898;-0.874;2023-11-19T08:35:32;99430.72;;;18.19;
46015;BME280;36844;51.898;-0.874;2023-11-19T08:37:58;99443.53;;;18.31;
46015;BME280;36844;51.898;-0.874;2023-11-19T08:40:24;99433.31;;;18.22;
46015;BME280;36844;51.898;-0.874;2023-11-19T08:42:51;99447.31;;;18.33;
46015;BME280;36844;51.898;-0.874;2023-11-19T08:45:16;99433.44;;;18.35;
46015;BME280;36844;51.898;-0.874;2023-11-19T08:47:41;99437.59;;;18.36;
46015;BME280;36844;51.898;-0.874;2023-11-19T08:50:07;99440.66;;;18.38;
46015;BME280;36844;51.898;-0.874;2023-11-19T08:52:33;99453.53;;;18.46;
46015;BME280;36844;51.898;-0.874;2023-11-19T08:54:58;99448.22;;;18.43;
46015;BME280;36844;51.898;-0.874;2023-11-19T08:57:24;99438.53;;;18.45;
46015;BME280;36844;51.898;-0.874;2023-11-19T08:59:49;99397.53;;;18.22;
46015;BME280;36844;51.898;-0.874;2023-11-19T09:02:14;99429.34;;;18.43;
46015;BME280;36844;51.898;-0.874;2023-11-19T09:04:40;99411.09;;;18.34;
46015;BME280;36844;51.898;-0.874;2023-11-19T09:07:06;99414.69;;;18.44;
46015;BME280;36844;51.898;-0.874;2023-11-19T09:09:32;99421.28;;;18.43;
46015;BME280;36844;51.898;-0.874;2023-11-19T09:12:01;99434.91;;;18.52;
46015;BME280;36844;51.898;-0.874;2023-11-19T09:14:26;99418.91;;;18.45;
46015;BME280;36844;51.898;-0.874;2023-11-19T09:16:52;99394.25;;;18.30;
46015;BME280;36844;51.898;-0.874;2023-11-19T09:19:18;99423.59;;;18.57;
46015;BME280;36844;51.898;-0.874;2023-11-19T09:21:43;99423.78;;;18.50;
46015;BME280;36844;51.898;-0.874;2023-11-19T09:24:09;99410.72;;;18.48;
46015;BME280;36844;51.898;-0.874;2023-11-19T09:26:34;99416.47;;;18.50;
46015;BME280;36844;51.898;-0.874;2023-11-19T09:29:01;99402.50;;;18.39;
46015;BME280;36844;51.898;-0.874;2023-11-19T09:31:26;99413.84;;;18.47;
46015;BME280;36844;51.898;-0.874;2023-11-19T09:33:51;99422.63;;;18.51;
46015;BME280;36844;51.898;-0.874;2023-11-19T09:36:17;99419.06;;;18.54;
46015;BME280;36844;51.898;-0.874;2023-11-19T09:38:43;99420.75;;;18.48;
46015;BME280;36844;51.898;-0.874;2023-11-19T09:41:09;99422.44;;;18.58;
46015;BME280;36844;51.898;-0.874;2023-11-19T09:43:37;99416.69;;;18.56;
46015;BME280;36844;51.898;-0.874;2023-11-19T09:46:05;99438.09;;;18.63;
46015;BME280;36844;51.898;-0.874;2023-11-19T09:48:35;99418.97;;;18.57;
46015;BME280;36844;51.898;-0.874;2023-11-19T09:51:02;99434.19;;;18.64;
46015;BME280;36844;51.898;-0.874;2023-11-19T09:53:29;99410.53;;;18.55;
46015;BME280;36844;51.898;-0.874;2023-11-19T09:55:55;99420.72;;;18.64;
46015;BME280;36844;51.898;-0.874;2023-11-19T09:58:21;99407.50;;;18.53;
46015;BME280;36844;51.898;-0.874;2023-11-19T10:00:47;99407.41;;;18.57;
46015;BME280;36844;51.898;-0.874;2023-11-19T10:03:13;99397.16;;;18.52;
46015;BME280;36844;51.898;-0.874;2023-11-19T10:05:38;99404.41;;;18.55;
46015;BME280;36844;51.898;-0.874;2023-11-19T10:08:04;99412.03;;;18.56;
46015;BME280;36844;51.898;-0.874;2023-11-19T10:10:30;99416.94;;;18.61;
46015;BME280;36844;51.898;-0.874;2023-11-19T10:12:55;99398.59;;;18.40;
46015;BME280;36844;51.898;-0.874;2023-11-19T10:15:22;99421.25;;;18.59;
46015;BME280;36844;51.898;-0.874;2023-11-19T10:17:50;99392.44;;;18.40;
46015;BME280;36844;51.898;-0.874;2023-11-19T10:20:15;99429.09;;;18.53;
46015;BME280;36844;51.898;-0.874;2023-11-19T10:22:40;99426.81;;;18.52;
46015;BME280;36844;51.898;-0.874;2023-11-19T10:25:25;99418.91;;;18.45;
46015;BME280;36844;51.898;-0.874;2023-11-19T10:27:51;99425.91;;;18.42;
46015;BME280;36844;51.898;-0.874;2023-11-19T10:30:27;99427.59;;;18.52;
46015;BME280;36844;51.898;-0.874;2023-11-19T10:33:03;99434.56;;;18.50;
46015;BME280;36844;51.898;-0.874;2023-11-19T10:35:29;99410.72;;;18.32;
46015;BME280;36844;51.898;-0.874;2023-11-19T10:37:54;99428.50;;;18.46;
46015;BME280;36844;51.898;-0.874;2023-11-19T10:40:19;99419.41;;;18.40;
46015;BME280;36844;51.898;-0.874;2023-11-19T10:42:45;99402.91;;;18.38;
46015;BME280;36844;51.898;-0.874;2023-11-19T10:45:23;99424.31;;;18.45;
46015;BME280;36844;51.898;-0.874;2023-11-19T10:47:51;99408.22;;;18.41;
46015;BME280;36844;51.898;-0.874;2023-11-19T10:50:17;99408.31;;;18.38;
46015;BME280;36844;51.898;-0.874;2023-11-19T10:52:43;99413.19;;;18.43;
46015;BME280;36844;51.898;-0.874;2023-11-19T10:55:11;99358.47;;;17.98;
46015;BME280;36844;51.898;-0.874;2023-11-19T10:57:36;99424.13;;;18.36;
46015;BME280;36844;51.898;-0.874;2023-11-19T11:00:04;99388.78;;;18.18;
46015;BME280;36844;51.898;-0.874;2023-11-19T11:02:40;99408.13;;;18.29;
46015;BME280;36844;51.898;-0.874;2023-11-19T11:05:08;99416.88;;;18.33;
46015;BME280;36844;51.898;-0.874;2023-11-19T11:07:33;99406.78;;;18.37;
46015;BME280;36844;51.898;-0.874;2023-11-19T11:10:00;99401.38;;;18.37;
46015;BME280;36844;51.898;-0.874;2023-11-19T11:12:27;99413.19;;;18.43;
46015;BME280;36844;51.898;-0.874;2023-11-19T11:14:53;99409.56;;;18.33;
46015;BME280;36844;51.898;-0.874;2023-11-19T11:17:20;99417.56;;;18.37;
46015;BME280;36844;51.898;-0.874;2023-11-19T11:19:49;99421.28;;;18.43;
46015;BME280;36844;51.898;-0.874;2023-11-19T11:22:16;99398.38;;;18.35;
46015;BME280;36844;51.898;-0.874;2023-11-19T11:27:40;99403.91;;;18.44;
46015;BME280;36844;51.898;-0.874;2023-11-19T11:38:06;99389.59;;;18.47;
46015;BME280;36844;51.898;-0.874;2023-11-19T11:40:32;99392.97;;;18.51;
46015;BME280;36844;51.898;-0.874;2023-11-19T11:42:57;99364.66;;;18.43;
46015;BME280;36844;51.898;-0.874;2023-11-19T11:45:36;99388.25;;;18.55;
46015;BME280;36844;51.898;-0.874;2023-11-19T11:48:11;99405.41;;;18.61;
46015;BME280;36844;51.898;-0.874;2023-11-19T11:50:49;99392.88;;;18.54;
46015;BME280;36844;51.898;-0.874;2023-11-19T11:53:19;99406.06;;;18.65;
46015;BME280;36844;51.898;-0.874;2023-11-19T11:58:13;99403.66;;;18.67;
46015;BME280;36844;51.898;-0.874;2023-11-19T12:00:40;99395.72;;;18.63;
46015;BME280;36844;51.898;-0.874;2023-11-19T12:03:07;99401.66;;;18.71;
46015;BME280;36844;51.898;-0.874;2023-11-19T12:05:38;99398.63;;;18.69;
46015;BME280;36844;51.898;-0.874;2023-11-19T12:08:04;99381.38;;;18.66;
46015;BME280;36844;51.898;-0.874;2023-11-19T12:10:36;99373.31;;;18.66;
46015;BME280;36844;51.898;-0.874;2023-11-19T12:13:05;99392.09;;;18.70;
46015;BME280;36844;51.898;-0.874;2023-11-19T12:15:32;99358.22;;;18.53;
46015;BME280;36844;51.898;-0.874;2023-11-19T12:17:57;99350.13;;;18.53;
46015;BME280;36844;51.898;-0.874;2023-11-19T12:20:24;99393.38;;;18.78;
46015;BME280;36844;51.898;-0.874;2023-11-19T12:22:50;99384.66;;;18.74;
46015;BME280;36844;51.898;-0.874;2023-11-19T12:25:17;99355.91;;;18.67;
46015;BME280;36844;51.898;-0.874;2023-11-19T12:27:45;99342.72;;;18.57;
46015;BME280;36844;51.898;-0.874;2023-11-19T12:30:11;99365.00;;;18.73;
46015;BME280;36844;51.898;-0.874;2023-11-19T12:32:41;99366.94;;;18.73;
46015;BME280;36844;51.898;-0.874;2023-11-19T12:35:08;99351.25;;;18.68;
46015;BME280;36844;51.898;-0.874;2023-11-19T12:37:47;99354.53;;;18.75;
46015;BME280;36844;51.898;-0.874;2023-11-19T12:42:41;99341.53;;;18.70;
46015;BME280;36844;51.898;-0.874;2023-11-19T12:45:07;99339.31;;;18.69;
46015;BME280;36844;51.898;-0.874;2023-11-19T12:47:34;99359.06;;;18.78;
46015;BME280;36844;51.898;-0.874;2023-11-19T12:49:59;99348.06;;;18.73;
46015;BME280;36844;51.898;-0.874;2023-11-19T12:52:24;99344.50;;;18.76;
46015;BME280;36844;51.898;-0.874;2023-11-19T12:54:50;99334.88;;;18.75;
46015;BME280;36844;51.898;-0.874;2023-11-19T12:57:16;99348.38;;;18.75;
46015;BME280;36844;51.898;-0.874;2023-11-19T12:59:41;99339.09;;;18.76;
46015;BME280;36844;51.898;-0.874;2023-11-19T13:02:08;99328.53;;;18.69;
46015;BME280;36844;51.898;-0.874;2023-11-19T13:04:33;99343.84;;;18.72;
46015;BME280;36844;51.898;-0.874;2023-11-19T13:06:59;99357.88;;;18.80;
46015;BME280;36844;51.898;-0.874;2023-11-19T13:09:26;99358.66;;;18.80;
46015;BME280;36844;51.898;-0.874;2023-11-19T13:11:53;99344.41;;;18.80;
46015;BME280;36844;51.898;-0.874;2023-11-19T13:14:19;99345.16;;;18.80;
46015;BME280;36844;51.898;-0.874;2023-11-19T13:16:45;99327.00;;;18.68;
46015;BME280;36844;51.898;-0.874;2023-11-19T13:19:12;99339.50;;;18.74;
46015;BME280;36844;51.898;-0.874;2023-11-19T13:21:38;99301.97;;;18.55;
46015;BME280;36844;51.898;-0.874;2023-11-19T13:24:05;99324.75;;;18.66;
46015;BME280;36844;51.898;-0.874;2023-11-19T13:26:31;99319.78;;;18.65;
46015;BME280;36844;51.898;-0.874;2023-11-19T13:28:56;99320.06;;;18.67;
46015;BME280;36844;51.898;-0.874;2023-11-19T13:31:22;99305.22;;;18.62;
46015;BME280;36844;51.898;-0.874;2023-11-19T13:33:47;99309.28;;;18.67;
46015;BME280;36844;51.898;-0.874;2023-11-19T13:36:12;99314.38;;;18.65;
46015;BME280;36844;51.898;-0.874;2023-11-19T13:38:38;99317.72;;;18.69;
46015;BME280;36844;51.898;-0.874;2023-11-19T13:41:04;99320.84;;;18.67;
46015;BME280;36844;51.898;-0.874;2023-11-19T13:43:30;99326.88;;;18.71;
46015;BME280;36844;51.898;-0.874;2023-11-19T13:45:56;99319.44;;;18.63;
46015;BME280;36844;51.898;-0.874;2023-11-19T13:48:23;99327.75;;;18.68;
46015;BME280;36844;51.898;-0.874;2023-11-19T13:50:49;99319.97;;;18.70;
46015;BME280;36844;51.898;-0.874;2023-11-19T13:53:15;99316.66;;;18.66;
46015;BME280;36844;51.898;-0.874;2023-11-19T13:55:41;99310.91;;;18.64;